METAR Data
IDs: Format: Raw Decoded Include TAF

Data at: 2118 UTC 19 May 2019

PAPN 192056Z AUTO 05007KT OVC055 08/06 A2960 RMK AO2 SLP025 T00830061 55009 PWINO $
PAPN 192019Z AUTO 07009KT SCT026 BKN050 OVC055 08/06 A2960 RMK AO2 PWINO $
PAPN 191956Z AUTO 05007KT BKN028 OVC043 10/04 A2960 RMK AO2 SLP024 T01000039 PWINO $
PAPN 191919Z AUTO 03007KT BKN024 OVC041 10/04 A2960 RMK AO2 PWINO $
PAPN 191856Z AUTO 02009KT OVC041 09/05 A2961 RMK AO2 SLP028 T00940050 PWINO $
PAPN 191756Z AUTO 36005KT OVC039 07/06 A2963 RMK AO2 SLP034 T00720056 10078 20017 56010 PWINO $
PAPN 191656Z AUTO 02005KT FEW035 OVC050 07/06 A2964 RMK AO2 SLP038 T00670056 PWINO $
PAPN 191556Z AUTO 01005KT SCT039 OVC070 05/04 A2964 RMK AO2 SLP039 T00500044 PWINO $
PAPN 191456Z AUTO 02004KT OVC047 03/02 A2966 RMK AO2 SLP044 T00280022 58012 PWINO $
PAPN 191356Z AUTO 00000KT SCT110 04/03 A2967 RMK AO2 SLP048 T00390028 PWINO $
PAPN 191256Z AUTO 05004KT FEW046 04/02 A2968 RMK AO2 SLP052 T00440022 PWINO $
PAPN 191156Z AUTO 06003KT CLR 04/02 A2969 RMK AO2 SLP056 70006 T00390017 10089 20022 58012 PWINO $
PAPN 191056Z AUTO 00000KT CLR 06/03 A2971 RMK AO2 SLP061 T00560033 PWINO $
PAPN 190956Z AUTO 10005KT CLR 06/03 A2972 RMK AO2 SLP065 T00560033 PWINO $
PAPN 190856Z AUTO 09004KT BKN085 06/03 A2972 RMK AO2 SLP068 T00610033 50001 PWINO $
PAPN 190756Z AUTO 12007KT CLR 06/03 A2973 RMK AO2 SLP069 T00560028 401110028 PWINO $
PAPN 190656Z AUTO 12006KT BKN055 07/04 A2972 RMK AO2 SLP067 T00720039 PWINO $
PAPN 190556Z AUTO 12007KT OVC055 09/03 A2972 RMK AO2 SLP067 60002 T00890028 10111 20083 55001 PWINO $
PAPN 190456Z AUTO 09007KT OVC060 11/02 A2972 RMK AO2 SLP065 T01060022 PWINO $
PAPN 190356Z AUTO VRB06KT SCT046 11/04 A2972 RMK AO2 SLP066 T01060044 PWINO $
PAPN 190256Z AUTO 35011KT FEW028 BKN047 BKN055 10/05 A2973 RMK AO2 SLP068 60002 T01000050 58005 PWINO $
PAPN 190156Z AUTO 33007KT SCT042 10/06 A2973 RMK AO2 SLP070 P0001 T01000056 PWINO $
PAPN 190108Z AUTO 36008KT SCT022 BKN041 OVC070 10/06 A2974 RMK AO2 PWINO $
PAPN 190056Z AUTO 02006KT FEW019 BKN027 OVC065 09/06 A2974 RMK AO2 SLP071 P0001 T00890061 PWINO $
PAPN 190031Z AUTO 34013KT FEW020 BKN026 OVC045 09/06 A2974 RMK AO2 PWINO $
PAPN 182356Z AUTO 34006KT FEW033 BKN044 OVC055 09/06 A2974 RMK AO2 SLP073 P0001 60001 T00940056 10100 20061 56003 PWINO $
PAPN 182256Z AUTO 32009KT SCT030 BKN037 OVC050 09/06 A2974 RMK AO2 SLP073 T00890056 PWINO $
PAPN 182210Z AUTO 30009KT FEW022 BKN039 OVC065 09/06 A2974 RMK AO2 PWINO $
PAPN 182156Z AUTO 27008KT BKN022 BKN029 OVC037 09/05 A2974 RMK AO2 SLP073 T00890050 PWINO $
PAPN 182142Z AUTO 29006KT BKN022 BKN031 OVC060 09/05 A2974 RMK AO2 PWINO $
PAPN 182123Z AUTO 29006KT SCT024 BKN035 OVC060 09/05 A2975 RMK AO2 PWINO $
PAPN 182056Z AUTO 31005KT OVC019 08/05 A2975 RMK AO2 SLP076 T00830050 50003 PWINO $
PAPN 181956Z AUTO 30006KT BKN019 BKN025 OVC030 08/06 A2975 RMK AO2 SLP077 T00780056 PWINO $
PAPN 181922Z AUTO VRB03KT BKN015 OVC022 08/05 A2975 RMK AO2 PWINO $
PAPN 181856Z AUTO VRB03KT BKN011 OVC060 08/06 A2975 RMK AO2 SLP076 T00780061 PWINO $
PAPN 181807Z AUTO 19005KT SCT005 BKN042 OVC049 06/06 A2975 RMK AO2 PWINO $
PAPN 181756Z AUTO 15003KT BKN005 OVC047 06/06 A2974 RMK AO2 SLP074 60003 T00610056 10061 20028 52007 PWINO $
PAPN 181733Z AUTO 19005KT OVC005 06/06 A2974 RMK AO2 CIG 003V007 PWINO $
PAPN 181656Z AUTO 20006KT BKN003 BKN007 OVC035 06/06 A2973 RMK AO2 SLP071 P0003 T00560056 PWINO $
PAPN 181647Z AUTO 19005KT BKN003 BKN011 OVC046 05/05 A2973 RMK AO2 CIG 002V008 P0003 PWINO $
PAPN 181612Z AUTO 14005KT BKN001 BKN027 OVC042 04/04 A2973 RMK AO2 PWINO $
PAPN 181556Z AUTO 13004KT FEW001 BKN027 OVC060 04/04 A2973 RMK AO2 SLP070 T00440044 PWINO $
PAPN 181546Z AUTO 13005KT SCT001 BKN027 OVC050 04/04 A2973 RMK AO2 PWINO $
PAPN 181532Z AUTO 13005KT BKN001 OVC080 04/03 A2973 RMK AO2 PWINO $
PAPN 181524Z AUTO 13005KT SCT001 OVC080 03/03 A2973 RMK AO2 PWINO $
PAPN 181456Z AUTO 11006KT OVC001 03/03 A2972 RMK AO2 SLP067 T00330033 53008 PWINO $
PAPN 181434Z AUTO 12006KT BKN001 OVC085 03/03 A2972 RMK AO2 PWINO $
PAPN 181356Z AUTO 15004KT FEW001 OVC080 03/03 A2971 RMK AO2 SLP064 T00330028 PWINO $
PAPN 181322Z AUTO 17005KT SCT001 OVC080 04/04 A2971 RMK AO2 PWINO $
PAPN 181311Z AUTO 15003KT BKN001 OVC080 03/03 A2971 RMK AO2 PWINO $
PAPN 181256Z AUTO 12006KT FEW001 OVC080 03/03 A2971 RMK AO2 SLP061 T00330033 PWINO $
PAPN 181156Z AUTO 06004KT OVC095 03/03 A2970 RMK AO2 SLP059 60010 70018 T00330033 10067 20033 53007 PWINO $
PAPN 181056Z AUTO 04003KT OVC090 03/03 A2969 RMK AO2 SLP054 T00330028 PWINO $
PAPN 180956Z AUTO 35005KT SCT035 OVC085 05/04 A2968 RMK AO2 SLP054 T00500044 PWINO $